sensor_id;sensor_type;location;lat;lon;timestamp;pressure;altitude;pressure_sealevel;temperature;humidity
77723;BME280;67811;42.656;23.394;2023-06-10T00:01:27;94675.41;;;16.25;84.60
77723;BME280;67811;42.656;23.394;2023-06-10T00:03:52;94664.84;;;16.30;84.63
77723;BME280;67811;42.656;23.394;2023-06-10T00:06:17;94666.97;;;16.40;84.59
77723;BME280;67811;42.656;23.394;2023-06-10T00:08:43;94668.47;;;16.48;84.05
77723;BME280;67811;42.656;23.394;2023-06-10T00:11:08;94672.56;;;16.50;83.71
77723;BME280;67811;42.656;23.394;2023-06-10T00:13:33;94666.41;;;16.50;83.74
77723;BME280;67811;42.656;23.394;2023-06-10T00:15:59;94673.50;;;16.56;83.78
77723;BME280;67811;42.656;23.394;2023-06-10T00:18:24;94678.19;;;16.72;82.94
77723;BME280;67811;42.656;23.394;2023-06-10T00:20:49;94672.59;;;16.74;82.74
77723;BME280;67811;42.656;23.394;2023-06-10T00:23:15;94674.66;;;16.60;83.61
77723;BME280;67811;42.656;23.394;2023-06-10T00:25:40;94667.56;;;16.54;84.89
77723;BME280;67811;42.656;23.394;2023-06-10T00:28:05;94671.06;;;16.66;84.59
77723;BME280;67811;42.656;23.394;2023-06-10T00:30:30;94661.53;;;16.70;84.81
77723;BME280;67811;42.656;23.394;2023-06-10T00:32:56;94677.59;;;16.70;84.92
77723;BME280;67811;42.656;23.394;2023-06-10T00:35:21;94674.91;;;16.70;85.28
77723;BME280;67811;42.656;23.394;2023-06-10T00:37:46;94684.22;;;16.91;83.96
77723;BME280;67811;42.656;23.394;2023-06-10T00:40:12;94678.84;;;17.03;82.85
77723;BME280;67811;42.656;23.394;2023-06-10T00:42:37;94687.38;;;16.88;80.62
77723;BME280;67811;42.656;23.394;2023-06-10T00:45:03;94685.94;;;16.62;81.83
77723;BME280;67811;42.656;23.394;2023-06-10T00:47:29;94677.34;;;16.60;81.57
77723;BME280;67811;42.656;23.394;2023-06-10T00:49:55;94673.59;;;16.38;82.73
77723;BME280;67811;42.656;23.394;2023-06-10T00:52:22;94665.09;;;16.41;82.72
77723;BME280;67811;42.656;23.394;2023-06-10T00:54:48;94671.75;;;16.38;82.91
77723;BME280;67811;42.656;23.394;2023-06-10T00:57:14;94674.50;;;16.31;83.36
77723;BME280;67811;42.656;23.394;2023-06-10T00:59:43;94676.34;;;16.19;83.08
77723;BME280;67811;42.656;23.394;2023-06-10T01:02:11;94675.38;;;16.02;84.03
77723;BME280;67811;42.656;23.394;2023-06-10T01:04:36;94681.50;;;15.91;84.86
77723;BME280;67811;42.656;23.394;2023-06-10T01:07:24;94679.84;;;15.78;85.33
77723;BME280;67811;42.656;23.394;2023-06-10T01:12:31;94680.75;;;15.72;85.89
77723;BME280;67811;42.656;23.394;2023-06-10T01:14:59;94688.16;;;15.70;86.58
77723;BME280;67811;42.656;23.394;2023-06-10T01:17:25;94689.09;;;15.75;86.53
77723;BME280;67811;42.656;23.394;2023-06-10T01:19:54;94684.03;;;15.86;86.16
77723;BME280;67811;42.656;23.394;2023-06-10T01:22:20;94689.97;;;15.88;86.66
77723;BME280;67811;42.656;23.394;2023-06-10T01:24:45;94686.97;;;15.96;87.10
77723;BME280;67811;42.656;23.394;2023-06-10T01:27:13;94684.81;;;16.04;86.41
77723;BME280;67811;42.656;23.394;2023-06-10T01:29:45;94678.88;;;16.14;85.52
77723;BME280;67811;42.656;23.394;2023-06-10T01:32:22;94678.31;;;16.12;86.23
77723;BME280;67811;42.656;23.394;2023-06-10T01:34:52;94682.63;;;16.25;85.66
77723;BME280;67811;42.656;23.394;2023-06-10T01:37:19;94681.72;;;16.31;85.77
77723;BME280;67811;42.656;23.394;2023-06-10T01:39:48;94678.72;;;16.51;85.09
77723;BME280;67811;42.656;23.394;2023-06-10T01:42:13;94683.72;;;16.59;84.76
77723;BME280;67811;42.656;23.394;2023-06-10T01:44:39;94682.56;;;16.67;84.30
77723;BME280;67811;42.656;23.394;2023-06-10T01:47:05;94679.81;;;16.73;84.08
77723;BME280;67811;42.656;23.394;2023-06-10T01:49:30;94681.91;;;16.71;84.28
77723;BME280;67811;42.656;23.394;2023-06-10T01:51:55;94672.31;;;16.64;84.87
77723;BME280;67811;42.656;23.394;2023-06-10T01:54:21;94670.34;;;16.59;85.44
77723;BME280;67811;42.656;23.394;2023-06-10T01:56:46;94672.31;;;16.52;85.89
77723;BME280;67811;42.656;23.394;2023-06-10T01:59:11;94669.56;;;16.70;84.56
77723;BME280;67811;42.656;23.394;2023-06-10T02:01:37;94668.03;;;16.63;84.66
77723;BME280;67811;42.656;23.394;2023-06-10T02:04:02;94665.91;;;16.41;85.50
77723;BME280;67811;42.656;23.394;2023-06-10T02:06:27;94663.03;;;16.43;85.96
77723;BME280;67811;42.656;23.394;2023-06-10T02:08:53;94668.59;;;16.29;86.62
77723;BME280;67811;42.656;23.394;2023-06-10T02:11:18;94667.41;;;16.25;87.27
77723;BME280;67811;42.656;23.394;2023-06-10T02:13:43;94664.72;;;16.25;86.43
77723;BME280;67811;42.656;23.394;2023-06-10T02:16:08;94664.94;;;16.12;87.75
77723;BME280;67811;42.656;23.394;2023-06-10T02:18:34;94658.09;;;16.04;88.37
77723;BME280;67811;42.656;23.394;2023-06-10T02:20:59;94659.22;;;16.08;88.37
77723;BME280;67811;42.656;23.394;2023-06-10T02:23:24;94652.53;;;16.18;87.73
77723;BME280;67811;42.656;23.394;2023-06-10T02:25:50;94649.97;;;16.23;87.42
77723;BME280;67811;42.656;23.394;2023-06-10T02:28:15;94642.63;;;16.18;87.54
77723;BME280;67811;42.656;23.394;2023-06-10T02:30:41;94646.34;;;16.05;88.61
77723;BME280;67811;42.656;23.394;2023-06-10T02:33:07;94643.53;;;16.00;88.90
77723;BME280;67811;42.656;23.394;2023-06-10T02:35:33;94648.22;;;16.05;89.24
77723;BME280;67811;42.656;23.394;2023-06-10T02:37:59;94637.41;;;16.12;89.27
77723;BME280;67811;42.656;23.394;2023-06-10T02:40:24;94640.22;;;16.17;89.13
77723;BME280;67811;42.656;23.394;2023-06-10T02:42:49;94636.47;;;16.18;89.02
77723;BME280;67811;42.656;23.394;2023-06-10T02:45:15;94647.53;;;16.21;88.81
77723;BME280;67811;42.656;23.394;2023-06-10T02:47:41;94637.91;;;16.44;87.36
77723;BME280;67811;42.656;23.394;2023-06-10T02:50:06;94637.91;;;16.32;87.72
77723;BME280;67811;42.656;23.394;2023-06-10T02:52:32;94640.91;;;16.36;87.44
77723;BME280;67811;42.656;23.394;2023-06-10T02:54:57;94631.72;;;16.31;87.63
77723;BME280;67811;42.656;23.394;2023-06-10T02:57:22;94631.72;;;16.31;88.02
77723;BME280;67811;42.656;23.394;2023-06-10T02:59:47;94634.19;;;16.33;87.97
77723;BME280;67811;42.656;23.394;2023-06-10T03:02:13;94633.13;;;16.34;87.22
77723;BME280;67811;42.656;23.394;2023-06-10T03:04:38;94631.41;;;16.40;86.37
77723;BME280;67811;42.656;23.394;2023-06-10T03:07:04;94625.00;;;16.41;85.26
77723;BME280;67811;42.656;23.394;2023-06-10T03:09:29;94633.38;;;16.44;84.12
77723;BME280;67811;42.656;23.394;2023-06-10T03:11:54;94635.56;;;16.24;84.33
77723;BME280;67811;42.656;23.394;2023-06-10T03:14:19;94639.13;;;16.06;85.75
77723;BME280;67811;42.656;23.394;2023-06-10T03:16:45;94638.44;;;15.99;85.49
77723;BME280;67811;42.656;23.394;2023-06-10T03:19:10;94640.31;;;16.10;85.38
77723;BME280;67811;42.656;23.394;2023-06-10T03:21:35;94640.09;;;16.12;85.25
77723;BME280;67811;42.656;23.394;2023-06-10T03:24:01;94633.31;;;16.09;84.98
77723;BME280;67811;42.656;23.394;2023-06-10T03:26:26;94643.44;;;16.07;85.19
77723;BME280;67811;42.656;23.394;2023-06-10T03:28:52;94647.03;;;16.01;85.60
77723;BME280;67811;42.656;23.394;2023-06-10T03:31:17;94654.81;;;16.02;85.84
77723;BME280;67811;42.656;23.394;2023-06-10T03:33:42;94647.03;;;16.01;86.07
77723;BME280;67811;42.656;23.394;2023-06-10T03:36:07;94657.47;;;16.02;86.15
77723;BME280;67811;42.656;23.394;2023-06-10T03:38:33;94656.81;;;16.07;86.86
77723;BME280;67811;42.656;23.394;2023-06-10T03:40:58;94660.19;;;16.14;87.33
77723;BME280;67811;42.656;23.394;2023-06-10T03:43:23;94665.22;;;16.22;87.73
77723;BME280;67811;42.656;23.394;2023-06-10T03:45:48;94664.03;;;16.30;87.68
77723;BME280;67811;42.656;23.394;2023-06-10T03:48:14;94663.72;;;16.38;88.10
77723;BME280;67811;42.656;23.394;2023-06-10T03:50:39;94665.94;;;16.53;88.57
77723;BME280;67811;42.656;23.394;2023-06-10T03:53:04;94660.81;;;16.51;88.78
77723;BME280;67811;42.656;23.394;2023-06-10T03:55:30;94664.78;;;16.49;89.40
77723;BME280;67811;42.656;23.394;2023-06-10T03:57:55;94660.00;;;16.51;89.34
77723;BME280;67811;42.656;23.394;2023-06-10T04:00:20;94662.31;;;16.59;89.72
77723;BME280;67811;42.656;23.394;2023-06-10T04:02:45;94662.56;;;16.57;89.69
77723;BME280;67811;42.656;23.394;2023-06-10T04:05:15;94661.19;;;16.55;90.14
77723;BME280;67811;42.656;23.394;2023-06-10T04:07:41;94671.41;;;16.58;90.22
77723;BME280;67811;42.656;23.394;2023-06-10T04:10:07;94669.09;;;16.62;89.47
77723;BME280;67811;42.656;23.394;2023-06-10T04:12:32;94662.38;;;16.71;89.32
77723;BME280;67811;42.656;23.394;2023-06-10T04:14:57;94679.13;;;16.78;89.15
77723;BME280;67811;42.656;23.394;2023-06-10T04:17:23;94678.44;;;16.82;88.45
77723;BME280;67811;42.656;23.394;2023-06-10T04:19:48;94676.31;;;16.84;88.63
77723;BME280;67811;42.656;23.394;2023-06-10T04:22:13;94671.75;;;16.97;88.61
77723;BME280;67811;42.656;23.394;2023-06-10T04:24:38;94673.19;;;16.99;88.60
77723;BME280;67811;42.656;23.394;2023-06-10T04:27:04;94667.00;;;16.99;87.10
77723;BME280;67811;42.656;23.394;2023-06-10T04:29:29;94679.25;;;16.71;87.81
77723;BME280;67811;42.656;23.394;2023-06-10T04:31:55;94676.28;;;16.61;87.93
77723;BME280;67811;42.656;23.394;2023-06-10T04:34:20;94677.38;;;16.72;88.12
77723;BME280;67811;42.656;23.394;2023-06-10T04:36:45;94667.09;;;16.57;88.42
77723;BME280;67811;42.656;23.394;2023-06-10T04:39:10;94673.38;;;16.63;88.75
77723;BME280;67811;42.656;23.394;2023-06-10T04:41:36;94672.56;;;16.62;88.87
77723;BME280;67811;42.656;23.394;2023-06-10T04:44:01;94677.09;;;16.38;88.36
77723;BME280;67811;42.656;23.394;2023-06-10T04:46:26;94673.25;;;16.46;89.72
77723;BME280;67811;42.656;23.394;2023-06-10T04:48:52;94669.19;;;16.43;88.65
77723;BME280;67811;42.656;23.394;2023-06-10T04:51:17;94673.00;;;16.24;87.80
77723;BME280;67811;42.656;23.394;2023-06-10T04:53:42;94673.41;;;16.09;88.52
77723;BME280;67811;42.656;23.394;2023-06-10T04:56:08;94674.44;;;15.96;89.22
77723;BME280;67811;42.656;23.394;2023-06-10T04:58:33;94670.56;;;15.92;89.22
77723;BME280;67811;42.656;23.394;2023-06-10T05:00:59;94662.41;;;15.75;89.78
77723;BME280;67811;42.656;23.394;2023-06-10T05:03:24;94671.06;;;15.89;89.97
77723;BME280;67811;42.656;23.394;2023-06-10T05:05:49;94667.84;;;15.99;89.98
77723;BME280;67811;42.656;23.394;2023-06-10T05:08:14;94666.00;;;16.11;89.88
77723;BME280;67811;42.656;23.394;2023-06-10T05:10:40;94660.78;;;16.16;89.43
77723;BME280;67811;42.656;23.394;2023-06-10T05:13:05;94661.94;;;16.20;89.45
77723;BME280;67811;42.656;23.394;2023-06-10T05:15:30;94670.44;;;16.17;89.40
77723;BME280;67811;42.656;23.394;2023-06-10T05:17:56;94672.84;;;16.19;88.96
77723;BME280;67811;42.656;23.394;2023-06-10T05:20:22;94664.38;;;16.10;88.67
77723;BME280;67811;42.656;23.394;2023-06-10T05:22:47;94662.88;;;16.26;88.49
77723;BME280;67811;42.656;23.394;2023-06-10T05:25:12;94655.78;;;16.31;88.63
77723;BME280;67811;42.656;23.394;2023-06-10T05:27:37;94666.03;;;16.34;88.70
77723;BME280;67811;42.656;23.394;2023-06-10T05:30:03;94661.63;;;16.40;88.90
77723;BME280;67811;42.656;23.394;2023-06-10T05:32:28;94663.84;;;16.55;88.14
77723;BME280;67811;42.656;23.394;2023-06-10T05:34:54;94664.78;;;16.60;88.46
77723;BME280;67811;42.656;23.394;2023-06-10T05:37:19;94667.25;;;16.74;87.92
77723;BME280;67811;42.656;23.394;2023-06-10T05:39:44;94667.13;;;16.80;87.14
77723;BME280;67811;42.656;23.394;2023-06-10T05:42:09;94668.97;;;16.80;87.26
77723;BME280;67811;42.656;23.394;2023-06-10T05:44:35;94673.88;;;16.95;85.33
77723;BME280;67811;42.656;23.394;2023-06-10T05:47:00;94663.88;;;16.90;85.27
77723;BME280;67811;42.656;23.394;2023-06-10T05:49:25;94672.59;;;16.85;86.35
77723;BME280;67811;42.656;23.394;2023-06-10T05:51:51;94677.94;;;16.97;86.60
77723;BME280;67811;42.656;23.394;2023-06-10T05:54:16;94676.66;;;17.11;86.15
77723;BME280;67811;42.656;23.394;2023-06-10T05:56:41;94675.81;;;17.23;85.44
77723;BME280;67811;42.656;23.394;2023-06-10T05:59:06;94684.19;;;17.26;85.01
77723;BME280;67811;42.656;23.394;2023-06-10T06:01:32;94686.59;;;17.39;85.16
77723;BME280;67811;42.656;23.394;2023-06-10T06:03:57;94679.84;;;17.49;84.71
77723;BME280;67811;42.656;23.394;2023-06-10T06:06:22;94685.50;;;17.52;85.21
77723;BME280;67811;42.656;23.394;2023-06-10T06:08:48;94678.97;;;17.60;84.94
77723;BME280;67811;42.656;23.394;2023-06-10T06:11:13;94686.16;;;17.83;85.50
77723;BME280;67811;42.656;23.394;2023-06-10T06:13:38;94675.66;;;18.10;83.39
77723;BME280;67811;42.656;23.394;2023-06-10T06:16:03;94673.72;;;18.22;82.71
77723;BME280;67811;42.656;23.394;2023-06-10T06:18:29;94677.03;;;18.29;82.63
77723;BME280;67811;42.656;23.394;2023-06-10T06:20:54;94675.44;;;18.45;82.82
77723;BME280;67811;42.656;23.394;2023-06-10T06:23:19;94676.66;;;18.54;81.33
77723;BME280;67811;42.656;23.394;2023-06-10T06:25:44;94674.00;;;18.71;81.11
77723;BME280;67811;42.656;23.394;2023-06-10T06:28:10;94667.41;;;18.79;80.41
77723;BME280;67811;42.656;23.394;2023-06-10T06:30:35;94666.75;;;18.88;79.14
77723;BME280;67811;42.656;23.394;2023-06-10T06:33:01;94670.56;;;18.92;79.65
77723;BME280;67811;42.656;23.394;2023-06-10T06:35:27;94670.38;;;18.99;79.53
77723;BME280;67811;42.656;23.394;2023-06-10T06:37:52;94670.84;;;19.13;78.99
77723;BME280;67811;42.656;23.394;2023-06-10T06:40:17;94674.91;;;19.15;78.93
77723;BME280;67811;42.656;23.394;2023-06-10T06:42:43;94676.03;;;19.19;78.53
77723;BME280;67811;42.656;23.394;2023-06-10T06:45:08;94663.13;;;19.38;78.15
77723;BME280;67811;42.656;23.394;2023-06-10T06:47:34;94659.25;;;19.51;77.03
77723;BME280;67811;42.656;23.394;2023-06-10T06:49:59;94663.63;;;19.57;76.29
77723;BME280;67811;42.656;23.394;2023-06-10T06:52:25;94658.91;;;19.64;75.48
77723;BME280;67811;42.656;23.394;2023-06-10T06:54:50;94658.41;;;19.67;76.02
77723;BME280;67811;42.656;23.394;2023-06-10T06:57:15;94657.75;;;19.82;75.34
77723;BME280;67811;42.656;23.394;2023-06-10T06:59:40;94654.88;;;19.89;74.67
77723;BME280;67811;42.656;23.394;2023-06-10T07:02:06;94657.59;;;19.94;74.50
77723;BME280;67811;42.656;23.394;2023-06-10T07:04:31;94654.19;;;20.04;73.61
77723;BME280;67811;42.656;23.394;2023-06-10T07:06:56;94652.16;;;20.16;72.82
77723;BME280;67811;42.656;23.394;2023-06-10T07:09:22;94657.09;;;20.24;72.63
77723;BME280;67811;42.656;23.394;2023-06-10T07:11:47;94648.31;;;20.07;72.04
77723;BME280;67811;42.656;23.394;2023-06-10T07:14:12;94653.31;;;20.25;72.54
77723;BME280;67811;42.656;23.394;2023-06-10T07:16:37;94648.78;;;20.58;72.27
77723;BME280;67811;42.656;23.394;2023-06-10T07:19:03;94648.38;;;20.76;69.70
77723;BME280;67811;42.656;23.394;2023-06-10T07:21:29;94647.44;;;20.97;69.50
77723;BME280;67811;42.656;23.394;2023-06-10T07:23:55;94654.81;;;21.12;68.30
77723;BME280;67811;42.656;23.394;2023-06-10T07:26:23;94646.34;;;21.36;67.00
77723;BME280;67811;42.656;23.394;2023-06-10T07:28:48;94642.13;;;21.55;65.52
77723;BME280;67811;42.656;23.394;2023-06-10T07:31:13;94644.06;;;21.75;65.49
77723;BME280;67811;42.656;23.394;2023-06-10T07:33:39;94639.25;;;21.87;64.19
77723;BME280;67811;42.656;23.394;2023-06-10T07:36:05;94637.72;;;22.17;63.40
77723;BME280;67811;42.656;23.394;2023-06-10T07:38:31;94637.75;;;22.37;61.58
77723;BME280;67811;42.656;23.394;2023-06-10T07:40:56;94642.59;;;22.71;60.62
77723;BME280;67811;42.656;23.394;2023-06-10T07:43:21;94642.06;;;22.53;59.92
77723;BME280;67811;42.656;23.394;2023-06-10T07:45:46;94640.69;;;22.76;59.17
77723;BME280;67811;42.656;23.394;2023-06-10T07:48:12;94631.72;;;23.17;58.90
77723;BME280;67811;42.656;23.394;2023-06-10T07:50:37;94637.03;;;23.52;55.62
77723;BME280;67811;42.656;23.394;2023-06-10T07:53:02;94644.66;;;24.00;55.19
77723;BME280;67811;42.656;23.394;2023-06-10T07:55:28;94639.06;;;24.35;52.99
77723;BME280;67811;42.656;23.394;2023-06-10T07:57:54;94631.75;;;24.36;51.06
77723;BME280;67811;42.656;23.394;2023-06-10T08:00:20;94632.28;;;24.33;51.56
77723;BME280;67811;42.656;23.394;2023-06-10T08:02:45;94638.25;;;24.98;50.37
77723;BME280;67811;42.656;23.394;2023-06-10T08:05:10;94637.94;;;25.34;49.16
77723;BME280;67811;42.656;23.394;2023-06-10T08:07:36;94638.63;;;25.68;47.76
77723;BME280;67811;42.656;23.394;2023-06-10T08:10:02;94635.28;;;25.53;47.05
77723;BME280;67811;42.656;23.394;2023-06-10T08:12:27;94642.97;;;25.45;46.07
77723;BME280;67811;42.656;23.394;2023-06-10T08:14:52;94635.84;;;25.73;45.84
77723;BME280;67811;42.656;23.394;2023-06-10T08:17:17;94631.69;;;25.81;43.98
77723;BME280;67811;42.656;23.394;2023-06-10T08:19:43;94626.22;;;26.62;42.67
77723;BME280;67811;42.656;23.394;2023-06-10T08:22:08;94625.31;;;27.31;39.36
77723;BME280;67811;42.656;23.394;2023-06-10T08:24:33;94623.41;;;27.73;36.98
77723;BME280;67811;42.656;23.394;2023-06-10T08:26:59;94615.75;;;27.01;36.63
77723;BME280;67811;42.656;23.394;2023-06-10T08:29:25;94613.81;;;26.56;38.43
77723;BME280;67811;42.656;23.394;2023-06-10T08:31:50;94615.59;;;27.12;38.80
77723;BME280;67811;42.656;23.394;2023-06-10T08:34:15;94611.06;;;27.35;37.97
77723;BME280;67811;42.656;23.394;2023-06-10T08:36:41;94610.28;;;27.62;36.82
77723;BME280;67811;42.656;23.394;2023-06-10T08:39:06;94607.56;;;27.62;36.04
77723;BME280;67811;42.656;23.394;2023-06-10T08:41:35;94607.34;;;27.30;39.65
77723;BME280;67811;42.656;23.394;2023-06-10T08:44:10;94609.16;;;27.21;37.91
77723;BME280;67811;42.656;23.394;2023-06-10T08:46:38;94599.91;;;27.50;37.80
77723;BME280;67811;42.656;23.394;2023-06-10T08:49:06;94604.53;;;27.49;37.50
77723;BME280;67811;42.656;23.394;2023-06-10T08:51:32;94598.09;;;27.59;37.98
77723;BME280;67811;42.656;23.394;2023-06-10T08:54:02;94596.34;;;27.91;38.04
77723;BME280;67811;42.656;23.394;2023-06-10T08:56:29;94596.91;;;28.74;35.71
77723;BME280;67811;42.656;23.394;2023-06-10T08:58:57;94590.59;;;28.28;35.20
77723;BME280;67811;42.656;23.394;2023-06-10T09:01:24;94586.84;;;28.38;34.70
77723;BME280;67811;42.656;23.394;2023-06-10T09:03:51;94581.72;;;28.59;35.50
77723;BME280;67811;42.656;23.394;2023-06-10T09:06:17;94583.81;;;28.62;34.39
77723;BME280;67811;42.656;23.394;2023-06-10T09:08:43;94581.44;;;28.92;35.43
77723;BME280;67811;42.656;23.394;2023-06-10T09:11:08;94577.97;;;28.77;35.37
77723;BME280;67811;42.656;23.394;2023-06-10T09:13:34;94582.94;;;28.75;34.08
77723;BME280;67811;42.656;23.394;2023-06-10T09:15:59;94583.09;;;28.70;34.44
77723;BME280;67811;42.656;23.394;2023-06-10T09:18:24;94575.47;;;28.89;34.10
77723;BME280;67811;42.656;23.394;2023-06-10T09:20:49;94578.03;;;29.08;32.51
77723;BME280;67811;42.656;23.394;2023-06-10T09:23:15;94570.09;;;29.29;32.93
77723;BME280;67811;42.656;23.394;2023-06-10T09:25:40;94571.72;;;28.99;32.23
77723;BME280;67811;42.656;23.394;2023-06-10T09:28:13;94562.41;;;28.47;32.71
77723;BME280;67811;42.656;23.394;2023-06-10T09:30:39;94564.56;;;28.58;34.16
77723;BME280;67811;42.656;23.394;2023-06-10T09:33:10;94571.78;;;28.85;34.08
77723;BME280;67811;42.656;23.394;2023-06-10T09:35:36;94566.78;;;29.01;33.99
77723;BME280;67811;42.656;23.394;2023-06-10T09:38:01;94568.97;;;28.68;33.63
77723;BME280;67811;42.656;23.394;2023-06-10T09:40:27;94571.19;;;29.20;33.78
77723;BME280;67811;42.656;23.394;2023-06-10T09:42:57;94558.72;;;29.45;33.38
77723;BME280;67811;42.656;23.394;2023-06-10T09:45:23;94569.31;;;29.37;33.50
77723;BME280;67811;42.656;23.394;2023-06-10T09:47:53;94559.53;;;29.36;34.65
77723;BME280;67811;42.656;23.394;2023-06-10T09:50:19;94569.13;;;29.74;33.96
77723;BME280;67811;42.656;23.394;2023-06-10T09:52:45;94564.13;;;29.19;34.76
77723;BME280;67811;42.656;23.394;2023-06-10T09:55:11;94560.47;;;29.32;33.97
77723;BME280;67811;42.656;23.394;2023-06-10T09:57:36;94554.00;;;29.59;33.91
77723;BME280;67811;42.656;23.394;2023-06-10T10:00:11;94547.41;;;29.60;33.39
77723;BME280;67811;42.656;23.394;2023-06-10T10:02:48;94548.34;;;29.55;32.61
77723;BME280;67811;42.656;23.394;2023-06-10T10:05:15;94543.03;;;29.10;34.07
77723;BME280;67811;42.656;23.394;2023-06-10T10:07:40;94543.72;;;28.85;34.48
77723;BME280;67811;42.656;23.394;2023-06-10T10:10:06;94540.94;;;28.09;34.13
77723;BME280;67811;42.656;23.394;2023-06-10T10:12:31;94543.66;;;27.45;35.28
77723;BME280;67811;42.656;23.394;2023-06-10T10:14:58;94529.34;;;27.53;35.83
77723;BME280;67811;42.656;23.394;2023-06-10T10:17:24;94530.56;;;27.75;35.17
77723;BME280;67811;42.656;23.394;2023-06-10T10:19:54;94529.94;;;27.64;36.42
77723;BME280;67811;42.656;23.394;2023-06-10T10:22:25;94530.03;;;28.09;35.22
77723;BME280;67811;42.656;23.394;2023-06-10T10:24:54;94522.78;;;28.41;33.74
77723;BME280;67811;42.656;23.394;2023-06-10T10:27:26;94526.94;;;28.69;34.36
77723;BME280;67811;42.656;23.394;2023-06-10T10:29:53;94517.41;;;28.58;33.72
77723;BME280;67811;42.656;23.394;2023-06-10T10:32:24;94515.63;;;28.08;34.01
77723;BME280;67811;42.656;23.394;2023-06-10T10:35:16;94511.84;;;27.68;34.16
77723;BME280;67811;42.656;23.394;2023-06-10T10:37:42;94513.16;;;27.07;36.29
77723;BME280;67811;42.656;23.394;2023-06-10T10:40:08;94516.44;;;27.04;36.47
77723;BME280;67811;42.656;23.394;2023-06-10T10:42:35;94512.91;;;27.45;36.62
77723;BME280;67811;42.656;23.394;2023-06-10T10:45:01;94517.63;;;27.80;36.48
77723;BME280;67811;42.656;23.394;2023-06-10T10:47:27;94501.19;;;28.30;35.47
77723;BME280;67811;42.656;23.394;2023-06-10T10:49:53;94511.03;;;28.94;33.64
77723;BME280;67811;42.656;23.394;2023-06-10T10:52:18;94504.38;;;29.57;34.21
77723;BME280;67811;42.656;23.394;2023-06-10T10:54:45;94495.47;;;29.43;32.80
77723;BME280;67811;42.656;23.394;2023-06-10T10:57:18;94502.53;;;29.35;33.27
77723;BME280;67811;42.656;23.394;2023-06-10T11:04:57;94493.94;;;29.93;32.29
77723;BME280;67811;42.656;23.394;2023-06-10T11:07:24;94494.41;;;29.61;32.35
77723;BME280;67811;42.656;23.394;2023-06-10T11:10:00;94484.16;;;30.01;31.01
77723;BME280;67811;42.656;23.394;2023-06-10T11:12:59;94486.38;;;29.56;33.15
77723;BME280;67811;42.656;23.394;2023-06-10T11:15:27;94477.97;;;29.44;33.59
77723;BME280;67811;42.656;23.394;2023-06-10T11:28:34;94464.25;;;29.09;31.69
77723;BME280;67811;42.656;23.394;2023-06-10T11:30:59;94470.91;;;29.34;31.87
77723;BME280;67811;42.656;23.394;2023-06-10T11:33:24;94458.47;;;29.85;30.24
77723;BME280;67811;42.656;23.394;2023-06-10T11:35:50;94459.63;;;29.18;31.03
77723;BME280;67811;42.656;23.394;2023-06-10T11:38:15;94459.91;;;29.08;33.36
77723;BME280;67811;42.656;23.394;2023-06-10T11:40:47;94456.06;;;29.09;32.82
77723;BME280;67811;42.656;23.394;2023-06-10T11:43:13;94458.09;;;28.95;32.67
77723;BME280;67811;42.656;23.394;2023-06-10T11:45:41;94449.47;;;29.10;31.75
77723;BME280;67811;42.656;23.394;2023-06-10T11:48:06;94442.94;;;28.80;31.99
77723;BME280;67811;42.656;23.394;2023-06-10T11:50:32;94449.63;;;29.05;32.37
77723;BME280;67811;42.656;23.394;2023-06-10T11:52:58;94449.00;;;29.17;31.29
77723;BME280;67811;42.656;23.394;2023-06-10T11:55:26;94447.19;;;28.95;31.66
77723;BME280;67811;42.656;23.394;2023-06-10T11:58:02;94447.88;;;29.09;31.67
77723;BME280;67811;42.656;23.394;2023-06-10T12:00:28;94443.66;;;28.94;31.38
77723;BME280;67811;42.656;23.394;2023-06-10T12:02:57;94445.22;;;28.86;31.25
77723;BME280;67811;42.656;23.394;2023-06-10T12:05:22;94448.00;;;28.64;31.76
77723;BME280;67811;42.656;23.394;2023-06-10T12:07:47;94441.16;;;28.44;32.40
77723;BME280;67811;42.656;23.394;2023-06-10T12:10:13;94435.50;;;27.87;31.84
77723;BME280;67811;42.656;23.394;2023-06-10T12:12:38;94435.56;;;27.73;33.02
77723;BME280;67811;42.656;23.394;2023-06-10T12:15:04;94440.31;;;28.13;33.29
77723;BME280;67811;42.656;23.394;2023-06-10T12:19:58;94440.84;;;28.46;32.22
77723;BME280;67811;42.656;23.394;2023-06-10T12:22:24;94430.94;;;28.50;31.47
77723;BME280;67811;42.656;23.394;2023-06-10T12:24:59;94432.47;;;28.65;32.87
77723;BME280;67811;42.656;23.394;2023-06-10T12:27:25;94425.94;;;28.74;31.52
77723;BME280;67811;42.656;23.394;2023-06-10T12:29:51;94427.53;;;28.75;31.00
77723;BME280;67811;42.656;23.394;2023-06-10T12:32:17;94431.19;;;28.71;31.53
77723;BME280;67811;42.656;23.394;2023-06-10T12:34:42;94433.47;;;28.77;31.24
77723;BME280;67811;42.656;23.394;2023-06-10T12:37:11;94420.38;;;28.57;31.31
77723;BME280;67811;42.656;23.394;2023-06-10T12:39:37;94421.78;;;28.46;30.34
77723;BME280;67811;42.656;23.394;2023-06-10T12:42:02;94410.97;;;28.63;30.44
77723;BME280;67811;42.656;23.394;2023-06-10T12:44:29;94409.59;;;28.43;30.23
77723;BME280;67811;42.656;23.394;2023-06-10T12:46:55;94411.09;;;28.27;29.84
77723;BME280;67811;42.656;23.394;2023-06-10T12:49:20;94401.88;;;28.37;29.76
77723;BME280;67811;42.656;23.394;2023-06-10T12:51:47;94396.97;;;28.56;30.18
77723;BME280;67811;42.656;23.394;2023-06-10T12:54:12;94403.47;;;28.77;30.02
77723;BME280;67811;42.656;23.394;2023-06-10T12:56:37;94404.78;;;28.88;29.34
77723;BME280;67811;42.656;23.394;2023-06-10T12:59:02;94403.66;;;28.89;28.79
77723;BME280;67811;42.656;23.394;2023-06-10T13:01:28;94414.44;;;28.55;29.22
77723;BME280;67811;42.656;23.394;2023-06-10T13:03:53;94408.84;;;27.98;29.87
77723;BME280;67811;42.656;23.394;2023-06-10T13:06:18;94408.38;;;28.04;30.37